Meteorología y climatología de Navarra
Datos de la estación - Meteo Navarra

Estación de Carcastillo (La Oliva) GN

Altitud 343 m.


Datos desde el 09/11/2018 hasta el 10/11/2018 en horario solar
Los datos son PROVISIONALES

Anterior Página 1 de 1 Siguiente Descargar: Formato para Excel 2000 o superior   Formato csv   Formato para OpenOffice Calc
Fecha Temperatura Humedad relativa Radiación global Insolación Precipitación Velocidad viento 10 m Velocidad viento 10 m Dirección viento 10 m
ºC % W/m² s l/m² m/s km/h º
09/11/2018 0:00 9.1 94 0.0 0 0.8 2.1 7.4 297
09/11/2018 0:10 8.9 94 0.0 0 0.1 1.0 3.5 278
09/11/2018 0:20 9.0 94 0.0 0 0.0 1.0 3.6 253
09/11/2018 0:30 8.9 94 0.0 0 0.0 1.1 4.0 258
09/11/2018 0:40 8.9 94 0.0 0 0.0 0.9 3.2 271
09/11/2018 0:50 8.9 94 0.0 0 0.0 0.9 3.1 248
09/11/2018 1:00 8.8 93 0.0 0 0.0 1.3 4.6 252
09/11/2018 1:10 8.8 93 0.0 0 0.0 1.6 5.6 259
09/11/2018 1:20 8.7 92 0.0 0 0.0 1.5 5.5 250
09/11/2018 1:30 8.6 92 0.0 0 0.0 1.7 6.2 258
09/11/2018 1:40 8.5 92 0.0 0 0.0 2.0 7.2 275
09/11/2018 1:50 8.2 91 0.0 0 0.0 2.2 7.9 274
09/11/2018 2:00 8.1 91 0.0 0 0.0 2.2 7.9 284
09/11/2018 2:10 8.0 91 0.0 0 0.0 0.9 3.1 304
09/11/2018 2:20 7.9 92 0.0 0 0.0 0.4 1.5 349
09/11/2018 2:30 7.7 92 0.0 0 0.0 0.3 1.1 250
09/11/2018 2:40 7.5 93 0.0 0 0.0 1.9 6.7 252
09/11/2018 2:50 7.6 93 0.0 0 0.0 2.0 7.0 272
09/11/2018 3:00 7.8 92 0.0 0 0.0 2.9 10.5 285
09/11/2018 3:10 8.2 88 0.0 0 0.0 3.9 14.1 279
09/11/2018 3:20 8.2 88 0.0 0 0.0 3.9 14.0 270
09/11/2018 3:30 8.2 88 0.0 0 0.0 3.8 13.6 279
09/11/2018 3:40 8.2 87 0.0 0 0.0 4.4 16.0 278
09/11/2018 3:50 8.3 87 0.0 0 0.0 4.2 15.3 279
09/11/2018 4:00 8.4 86 0.0 0 0.0 3.7 13.3 283
09/11/2018 4:10 8.4 85 0.0 0 0.0 3.2 11.5 294
09/11/2018 4:20 8.4 85 0.0 0 0.0 3.3 11.9 287
09/11/2018 4:30 8.5 86 0.0 0 0.0 3.3 11.9 286
09/11/2018 4:40 8.2 86 0.0 0 0.1 3.7 13.2 282
09/11/2018 4:50 8.2 87 0.0 0 0.0 3.8 13.7 278
09/11/2018 5:00 8.2 87 0.0 0 0.0 2.9 10.4 282
09/11/2018 5:10 8.1 87 0.0 0 0.0 1.4 4.9 280
09/11/2018 5:20 8.0 88 0.0 0 0.0 0.8 3.0 286
09/11/2018 5:30 8.0 87 0.0 0 0.0 1.7 5.9 282
09/11/2018 5:40 8.1 87 0.0 0 0.0 1.8 6.4 273
09/11/2018 5:50 8.0 87 0.0 0 0.0 1.2 4.5 277
09/11/2018 6:00 8.1 87 0.0 0 0.0 2.2 7.9 264
09/11/2018 6:10 7.9 87 0.0 0 0.0 3.0 10.7 274
09/11/2018 6:20 8.1 85 0.0 0 0.0 3.2 11.7 280
09/11/2018 6:30 8.1 84 0.0 0 0.0 3.0 10.8 280
09/11/2018 6:40 8.1 85 0.0 0 0.0 2.9 10.4 277
09/11/2018 6:50 8.0 86 0.0 0 0.0 2.7 9.8 275
09/11/2018 7:00 7.9 87 0.0 0 0.0 3.4 12.1 277
09/11/2018 7:10 7.8 87 0.0 0 0.0 2.6 9.4 282
09/11/2018 7:20 8.0 86 0.0 0 0.0 3.0 10.7 284
09/11/2018 7:30 7.9 86 13.0 0 0.0 3.0 10.8 282
09/11/2018 7:40 8.1 86 26.7 0 0.0 2.9 10.3 282
09/11/2018 7:50 8.2 86 28.0 0 0.0 2.5 8.9 283
09/11/2018 8:00 8.2 86 22.2 0 0.0 3.1 11.3 279
09/11/2018 8:10 8.3 86 66.0 34 0.0 3.5 12.6 280
09/11/2018 8:20 8.5 84 122.0 214 0.0 2.6 9.2 287
09/11/2018 8:30 8.8 84 98.5 64 0.0 2.4 8.6 286
09/11/2018 8:40 8.9 82 88.2 0 0.0 2.8 10.0 287
09/11/2018 8:50 8.8 83 81.5 0 0.0 2.4 8.5 290
09/11/2018 9:00 8.8 83 111.3 0 0.0 2.3 8.3 294
09/11/2018 9:10 9.0 83 153.5 0 0.0 1.9 6.8 295
09/11/2018 9:20 9.1 82 155.2 0 0.0 2.1 7.5 293
09/11/2018 9:30 9.3 81 158.1 0 0.0 2.2 7.9 299
09/11/2018 9:40 9.4 79 203.3 170 0.0 2.8 10.1 308
09/11/2018 9:50 9.7 78 322.5 394 0.0 3.1 11.1 302
09/11/2018 10:00 10.2 78 257.9 600 0.0 2.7 9.6 300
09/11/2018 10:10 10.4 77 354.9 600 0.0 3.3 11.8 301
09/11/2018 10:20 10.8 75 359.1 600 0.0 3.6 12.9 303
09/11/2018 10:30 11.0 74 306.5 600 0.0 3.7 13.4 314
09/11/2018 10:40 11.2 73 325.2 600 0.0 3.7 13.1 311
09/11/2018 10:50 11.3 73 381.0 600 0.0 3.3 11.9 313
09/11/2018 11:00 11.6 72 373.3 600 0.0 3.6 12.9 324
09/11/2018 11:10 11.8 71 493.4 600 0.0 3.5 12.6 325
09/11/2018 11:20 12.2 70 562.1 600 0.0 3.6 13.0 328
09/11/2018 11:30 12.5 68 390.8 456 0.0 3.9 14.1 326
09/11/2018 11:40 12.2 66 276.1 242 0.0 4.0 14.5 325
09/11/2018 11:50 12.1 67 212.4 0 0.0 3.3 11.7 320
09/11/2018 12:00 12.3 67 278.8 406 0.0 3.4 12.2 305
09/11/2018 12:10 12.5 65 259.4 126 0.0 3.3 11.8 341
09/11/2018 12:20 12.6 64 285.0 178 0.0 2.9 10.5 344
09/11/2018 12:30 12.7 63 279.9 172 0.0 3.2 11.6 328
09/11/2018 12:40 12.9 63 534.7 542 0.0 3.0 10.7 308
09/11/2018 12:50 13.1 60 422.5 416 0.0 3.3 11.7 329
09/11/2018 13:00 13.8 60 579.5 600 0.0 3.2 11.6 327
09/11/2018 13:10 14.4 59 563.8 590 0.0 3.2 11.6 296
09/11/2018 13:20 14.3 56 514.0 600 0.0 3.5 12.5 314
09/11/2018 13:30 14.2 56 467.9 600 0.0 2.9 10.3 318
09/11/2018 13:40 14.4 56 458.1 600 0.0 3.1 11.1 313
09/11/2018 13:50 14.6 56 307.5 418 0.0 2.8 10.0 302
09/11/2018 14:00 14.4 54 424.8 542 0.0 3.3 11.8 310
09/11/2018 14:10 14.5 54 435.6 600 0.0 3.1 11.3 317
09/11/2018 14:20 14.7 54 404.4 600 0.0 3.5 12.6 319
09/11/2018 14:30 14.7 53 342.0 600 0.0 3.6 13.0 300
09/11/2018 14:40 14.5 54 314.8 600 0.0 2.8 9.9 301
09/11/2018 14:50 14.4 54 319.3 600 0.0 2.7 9.8 297
09/11/2018 15:00 14.2 55 289.0 600 0.0 2.1 7.7 318
09/11/2018 15:10 13.7 55 254.6 600 0.0 1.9 6.7 324
09/11/2018 15:20 13.6 57 225.2 600 0.0 2.1 7.7 310
09/11/2018 15:30 13.7 58 196.9 600 0.0 1.8 6.4 300
09/11/2018 15:40 13.5 59 168.3 600 0.0 1.8 6.4 291
09/11/2018 15:50 13.5 59 142.4 600 0.0 1.5 5.5 293
09/11/2018 16:00 13.3 61 107.5 526 0.0 1.0 3.7 293
09/11/2018 16:10 13.1 60 84.8 600 0.0 0.7 2.6 286
09/11/2018 16:20 12.9 64 74.7 600 0.0 0.8 2.9 268
09/11/2018 16:30 12.8 65 27.8 222 0.0 1.2 4.4 252
09/11/2018 16:40 12.4 68 0.0 0 0.0 1.0 3.6 251
09/11/2018 16:50 11.7 69 0.0 0 0.0 0.6 2.0 235
09/11/2018 17:00 11.0 73 0.0 0 0.0 1.0 3.5 202
09/11/2018 17:10 10.3 74 0.0 0 0.0 1.6 5.8 203
09/11/2018 17:20 10.0 75 0.0 0 0.0 1.1 3.8 213
09/11/2018 17:30 9.4 80 0.0 0 0.0 0.7 2.6 11
09/11/2018 17:40 8.9 81 0.0 0 0.0 0.4 1.5 29
09/11/2018 17:50 8.6 83 0.0 0 0.0 0.0 0.0 0
09/11/2018 18:00 8.2 85 0.0 0 0.0 0.5 1.9 87
09/11/2018 18:10 7.8 86 0.0 0 0.0 0.4 1.6 175
09/11/2018 18:20 7.7 86 0.0 0 0.0 0.2 0.8 204
09/11/2018 18:30 7.5 88 0.0 0 0.0 0.1 0.5 205
09/11/2018 18:40 7.6 88 0.0 0 0.0 1.0 3.5 113
09/11/2018 18:50 7.6 86 0.0 0 0.0 1.8 6.5 113
09/11/2018 19:00 7.7 87 0.0 0 0.0 1.7 6.2 98
09/11/2018 19:10 7.7 88 0.0 0 0.0 1.8 6.4 87
09/11/2018 19:20 8.0 87 0.0 0 0.0 1.6 5.7 80
09/11/2018 19:30 8.2 87 0.0 0 0.0 1.6 5.7 90
09/11/2018 19:40 8.3 87 0.0 0 0.0 1.3 4.6 101
09/11/2018 19:50 8.3 87 0.0 0 0.0 2.1 7.7 109
09/11/2018 20:00 8.3 86 0.0 0 0.0 2.3 8.4 117
09/11/2018 20:10 8.3 85 0.0 0 0.0 2.0 7.1 125
09/11/2018 20:20 8.3 85 0.0 0 0.0 1.6 5.8 115
09/11/2018 20:30 8.2 85 0.0 0 0.0 2.4 8.5 130
09/11/2018 20:40 8.2 84 0.0 0 0.0 2.6 9.2 131
09/11/2018 20:50 8.2 84 0.0 0 0.0 2.6 9.4 132
09/11/2018 21:00 8.1 84 0.0 0 0.0 2.9 10.4 137
09/11/2018 21:10 8.1 84 0.0 0 0.0 2.8 10.2 130
09/11/2018 21:20 8.0 86 0.0 0 0.0 2.5 8.9 119
09/11/2018 21:30 7.9 86 0.0 0 0.0 2.7 9.6 128
09/11/2018 21:40 8.1 85 0.0 0 0.0 2.6 9.5 110
09/11/2018 21:50 7.8 86 0.0 0 0.0 2.5 9.0 109
09/11/2018 22:00 7.7 86 0.0 0 0.0 2.4 8.7 106
09/11/2018 22:10 7.6 87 0.0 0 0.0 2.1 7.6 107
09/11/2018 22:20 7.6 87 0.0 0 0.0 2.3 8.1 102
09/11/2018 22:30 7.7 87 0.0 0 0.0 2.5 9.0 104
09/11/2018 22:40 7.9 86 0.0 0 0.0 2.7 9.6 122
09/11/2018 22:50 8.2 84 0.0 0 0.0 3.3 11.8 126
09/11/2018 23:00 8.4 83 0.0 0 0.0 2.6 9.4 122
09/11/2018 23:10 8.4 83 0.0 0 0.0 2.4 8.7 116
09/11/2018 23:20 8.5 84 0.0 0 0.0 2.2 7.8 97
09/11/2018 23:30 8.3 85 0.0 0 0.0 2.0 7.3 101
09/11/2018 23:40 8.4 85 0.0 0 0.0 2.2 7.8 112
09/11/2018 23:50 8.4 86 0.0 0 0.0 2.2 8.0 113
Anterior Página 1 de 1 Siguiente

NOTA: Tipo de datos según el color:
   - Valores diarios o 10 minutos correctos
   - Valores diarios calculados a partir de un número de datos 10 minutos menor que 144 y mayor que 120, o de un número de datos semihorarios menor que 48 y mayor que 40 (caso de las estaciones de Riegos de Navarra y del MARM)
   - Valores diez minutos estimados


Contacto        Enlaces        Aviso legal